Time;durP1;ratioP1;P1;durP2;ratioP2;P2;SDS_P1;SDS_P2;PMS_P1;PMS_P2;Temp;Humidity;BMP_temperature;BMP_pressure;BME280_temperature;BME280_humidity;BME280_pressure;Samples;Min_cycle;Max_cycle;Signal;HPM_P1;HPM_P2
2022/07/28 00:02:12;;;;;;;7.28;4.07;;;;;;;21.04;54.57;96191.31;5113733;28;20052;-72
2022/07/28 00:04:40;;;;;;;7.57;4.03;;;;;;;20.92;54.81;96190.56;5113951;28;20388;-73
2022/07/28 00:07:07;;;;;;;9.68;4.03;;;;;;;20.83;55.31;96189.50;5113895;28;20090;-74
2022/07/28 00:09:34;;;;;;;6.10;3.55;;;;;;;20.82;55.29;96182.50;5113867;28;20461;-73
2022/07/28 00:12:02;;;;;;;7.50;3.92;;;;;;;20.81;55.29;96187.00;5113890;28;20520;-70
2022/07/28 00:14:29;;;;;;;4.82;3.95;;;;;;;20.82;55.16;96179.84;5113715;28;20096;-69
2022/07/28 00:16:56;;;;;;;9.45;3.97;;;;;;;20.86;55.68;96183.91;5113769;28;20133;-69
2022/07/28 00:19:23;;;;;;;7.82;4.10;;;;;;;20.83;55.25;96186.84;5113734;28;20459;-69
2022/07/28 00:21:51;;;;;;;4.72;3.67;;;;;;;20.76;55.43;96196.28;5113663;28;20040;-70
2022/07/28 00:24:18;;;;;;;8.73;4.20;;;;;;;20.76;56.42;96198.94;5113581;28;20123;-70
2022/07/28 00:26:45;;;;;;;8.15;3.85;;;;;;;20.74;56.20;96204.41;5112698;28;20150;-69
2022/07/28 00:29:12;;;;;;;7.35;3.80;;;;;;;20.70;56.50;96214.47;5113633;28;20044;-72
2022/07/28 00:31:39;;;;;;;4.10;3.67;;;;;;;20.66;56.26;96210.38;5113649;28;20119;-70
2022/07/28 00:34:07;;;;;;;7.95;4.10;;;;;;;20.53;56.33;96210.56;5113641;28;20043;-71
2022/07/28 00:36:34;;;;;;;4.97;3.97;;;;;;;20.54;56.55;96212.25;5113384;28;20047;-72
2022/07/28 00:39:02;;;;;;;6.57;4.00;;;;;;;20.54;56.41;96216.72;5113436;28;20489;-72
2022/07/28 00:41:30;;;;;;;7.63;4.22;;;;;;;20.53;56.27;96218.53;5113380;28;20139;-72
2022/07/28 00:43:57;;;;;;;7.28;4.22;;;;;;;20.54;56.18;96214.91;5113394;28;20048;-71
2022/07/28 00:46:24;;;;;;;4.68;4.22;;;;;;;20.52;56.40;96213.34;5113349;28;20051;-72
2022/07/28 00:48:52;;;;;;;5.72;3.88;;;;;;;20.52;56.71;96213.34;5113367;28;20448;-70
2022/07/28 00:51:23;;;;;;;9.18;4.57;;;;;;;20.52;57.01;96214.19;5113365;28;20059;-72
2022/07/28 00:53:51;;;;;;;;;;;;;;;20.48;57.05;96210.13;5113738;28;20457;-70
2022/07/28 00:56:21;;;;;;;6.65;3.70;;;;;;;20.39;57.01;96213.53;5113231;28;19998;-73
2022/07/28 00:58:48;;;;;;;7.97;4.40;;;;;;;20.37;57.15;96224.28;5113237;28;20040;-69
2022/07/28 01:01:18;;;;;;;4.30;3.90;;;;;;;20.33;57.22;96213.09;5113381;28;20097;-72
2022/07/28 01:03:48;;;;;;;7.72;3.83;;;;;;;20.31;57.68;96216.81;5113167;28;20063;-73
2022/07/28 01:06:26;;;;;;;6.82;3.67;;;;;;;20.27;57.95;96212.75;5113246;28;20135;-73
2022/07/28 01:09:02;;;;;;;5.32;4.15;;;;;;;20.23;57.76;96219.28;5113195;28;20474;-72
2022/07/28 01:11:39;;;;;;;4.20;3.80;;;;;;;20.14;57.83;96216.41;5113523;28;20069;-71
2022/07/28 01:14:09;;;;;;;4.70;4.30;;;;;;;20.00;57.64;96217.53;5113034;28;20083;-73
2022/07/28 01:16:43;;;;;;;4.38;3.72;;;;;;;20.04;58.28;96208.34;5113017;28;20048;-71
2022/07/28 01:19:33;;;;;;;4.82;3.75;;;;;;;20.01;58.66;96218.38;5113065;28;20047;-71
2022/07/28 01:22:03;;;;;;;5.17;4.30;;;;;;;19.95;58.73;96212.56;5113058;28;20123;-71
2022/07/28 01:24:39;;;;;;;4.00;3.50;;;;;;;19.82;58.86;96210.09;5112932;28;20130;-71
2022/07/28 01:27:11;;;;;;;4.68;4.22;;;;;;;19.81;58.85;96203.06;5112832;28;20142;-70
2022/07/28 01:30:02;;;;;;;11.65;4.25;;;;;;;19.71;59.25;96196.81;5113017;28;20499;-73
2022/07/28 01:32:36;;;;;;;5.10;4.60;;;;;;;19.65;59.54;96197.31;5112998;28;20043;-70
2022/07/28 01:35:10;;;;;;;4.97;3.72;;;;;;;19.67;59.60;96198.91;5113038;28;20447;-71
2022/07/28 01:37:43;;;;;;;8.00;4.45;;;;;;;19.65;59.75;96194.66;5114630;28;20105;-72
2022/07/28 01:40:12;;;;;;;5.50;4.47;;;;;;;19.62;59.93;96195.75;5116705;28;20401;-72
2022/07/28 01:42:43;;;;;;;8.80;5.03;;;;;;;19.59;60.01;96200.50;5116677;28;20083;-73
2022/07/28 01:45:12;;;;;;;4.53;4.10;;;;;;;19.53;60.16;96204.44;5116488;28;20055;-72
2022/07/28 01:47:43;;;;;;;7.32;4.70;;;;;;;19.49;60.17;96195.91;5116503;28;20047;-71
2022/07/28 01:50:12;;;;;;;8.90;4.53;;;;;;;19.52;60.26;96200.13;5116596;28;20050;-73
2022/07/28 01:52:41;;;;;;;5.57;5.00;;;;;;;19.57;59.98;96198.78;5116505;28;20062;-70
2022/07/28 01:55:11;;;;;;;4.88;4.22;;;;;;;19.55;60.63;96203.38;5116306;28;20044;-73
2022/07/28 01:57:38;;;;;;;8.85;4.50;;;;;;;19.50;60.44;96204.72;5116289;28;20415;-72
2022/07/28 02:00:08;;;;;;;5.78;4.57;;;;;;;19.43;60.61;96214.97;5116500;28;20052;-74
2022/07/28 02:02:37;;;;;;;7.50;5.00;;;;;;;19.40;60.12;96213.41;5116262;28;20043;-73
2022/07/28 02:05:07;;;;;;;6.75;4.78;;;;;;;19.42;60.46;96207.97;5116245;28;20043;-68
2022/07/28 02:07:36;;;;;;;10.43;4.90;;;;;;;19.41;60.54;96207.13;5116096;28;20130;-70
2022/07/28 02:10:06;;;;;;;6.47;4.30;;;;;;;19.40;60.89;96215.19;5116106;28;20119;-72
2022/07/28 02:12:38;;;;;;;15.75;4.78;;;;;;;19.26;61.62;96214.47;5115943;28;20386;-69
2022/07/28 02:15:10;;;;;;;4.65;4.25;;;;;;;19.22;61.45;96214.84;5116247;28;20048;-72
2022/07/28 02:17:39;;;;;;;4.82;4.25;;;;;;;19.13;61.37;96217.25;5115937;28;20106;-75
2022/07/28 02:20:10;;;;;;;9.30;4.77;;;;;;;19.06;61.36;96221.31;5116038;28;20052;-72
2022/07/28 02:22:38;;;;;;;4.35;3.83;;;;;;;19.04;60.90;96213.50;5115938;28;20093;-69
2022/07/28 02:25:07;;;;;;;5.68;3.88;;;;;;;19.05;61.32;96211.66;5115784;28;20040;-74
2022/07/28 02:27:38;;;;;;;9.27;4.22;;;;;;;19.03;61.26;96208.31;5115808;28;20092;-74
2022/07/28 02:30:09;;;;;;;8.02;4.45;;;;;;;19.02;61.32;96220.72;5115608;28;20052;-73
2022/07/28 02:32:41;;;;;;;9.57;4.65;;;;;;;18.98;60.83;96216.63;5115770;28;20126;-70
2022/07/28 02:35:16;;;;;;;7.32;3.70;;;;;;;18.92;60.53;96215.28;5115479;28;20055;-73
2022/07/28 02:37:49;;;;;;;10.52;4.30;;;;;;;18.91;61.14;96220.69;5115564;28;20047;-72
2022/07/28 02:40:18;;;;;;;5.63;3.65;;;;;;;18.92;60.88;96223.25;5115663;28;20087;-72
2022/07/28 02:42:48;;;;;;;4.75;3.83;;;;;;;18.89;61.04;96219.97;5115539;28;20055;-71
2022/07/28 02:45:18;;;;;;;4.38;3.92;;;;;;;18.91;61.29;96226.81;5115466;28;20082;-70
2022/07/28 02:47:48;;;;;;;3.60;3.30;;;;;;;18.91;61.29;96226.81;5115388;28;20047;-73
2022/07/28 02:50:23;;;;;;;4.28;3.55;;;;;;;18.89;61.60;96227.91;5114775;28;20051;-72
2022/07/28 02:52:51;;;;;;;5.07;4.13;;;;;;;18.81;61.50;96231.16;5115179;28;20100;-72
2022/07/28 02:55:19;;;;;;;6.80;4.50;;;;;;;18.80;61.56;96237.41;5115442;28;20047;-73
2022/07/28 02:57:46;;;;;;;4.20;3.80;;;;;;;18.78;61.70;96237.53;5115121;28;20043;-69
2022/07/28 03:00:14;;;;;;;6.40;3.95;;;;;;;18.74;61.70;96232.59;5115136;28;20047;-68
2022/07/28 03:02:45;;;;;;;5.68;4.20;;;;;;;18.74;61.60;96236.09;5114817;28;20055;-69
2022/07/28 03:05:14;;;;;;;5.22;4.13;;;;;;;18.77;61.93;96235.00;5115009;28;20048;-73
2022/07/28 03:07:44;;;;;;;6.65;4.30;;;;;;;18.75;61.82;96240.41;5114964;28;20047;-73
2022/07/28 03:10:19;;;;;;;4.57;3.85;;;;;;;18.72;61.72;96242.47;5114957;28;20496;-74
2022/07/28 03:12:46;;;;;;;6.20;3.83;;;;;;;18.73;61.36;96244.16;5114967;28;20044;-75
2022/07/28 03:15:13;;;;;;;6.18;4.75;;;;;;;18.77;61.65;96248.25;5114814;28;20044;-72
2022/07/28 03:17:40;;;;;;;4.50;4.05;;;;;;;18.79;61.78;96249.81;5114735;28;20432;-71
2022/07/28 03:20:08;;;;;;;6.60;3.63;;;;;;;18.76;61.81;96252.72;5114667;28;20054;-73
2022/07/28 03:22:36;;;;;;;7.15;4.40;;;;;;;18.68;61.99;96249.78;5114732;28;20059;-74
2022/07/28 03:25:08;;;;;;;5.75;4.32;;;;;;;18.62;62.48;96244.94;5114834;28;20051;-74
2022/07/28 03:27:40;;;;;;;6.03;4.00;;;;;;;18.67;62.23;96248.09;5114487;28;20075;-75
2022/07/28 03:30:11;;;;;;;4.43;4.03;;;;;;;18.74;62.11;96254.63;5114671;28;20054;-72
2022/07/28 03:32:41;;;;;;;4.78;3.97;;;;;;;18.79;62.15;96256.94;5114612;28;20048;-70
2022/07/28 03:35:10;;;;;;;5.82;3.92;;;;;;;18.84;62.43;96259.22;5114421;28;20436;-72
2022/07/28 03:37:42;;;;;;;4.07;3.70;;;;;;;18.82;62.31;96252.22;5114368;28;20059;-69
2022/07/28 03:40:14;;;;;;;4.57;3.90;;;;;;;18.85;62.39;96263.56;5114334;28;20058;-73
2022/07/28 03:42:43;;;;;;;9.48;4.50;;;;;;;18.79;62.50;96267.53;5114500;28;20061;-72
2022/07/28 03:45:11;;;;;;;4.28;3.88;;;;;;;18.80;62.59;96269.22;5114325;28;20086;-72
2022/07/28 03:47:38;;;;;;;7.85;3.92;;;;;;;18.82;62.65;96260.16;5114073;28;20051;-72
2022/07/28 03:50:06;;;;;;;5.40;4.10;;;;;;;18.91;62.26;96271.88;5114205;28;20093;-70
2022/07/28 03:52:33;;;;;;;5.85;4.00;;;;;;;19.01;61.93;96261.44;5114226;28;20131;-71
2022/07/28 03:55:00;;;;;;;6.50;3.70;;;;;;;19.16;61.79;96264.75;5114292;28;20117;-69
2022/07/28 03:57:28;;;;;;;4.25;3.63;;;;;;;19.27;62.13;96265.72;5114048;28;20455;-70
2022/07/28 03:59:56;;;;;;;5.00;3.65;;;;;;;19.45;61.57;96256.28;5113729;28;20101;-70
2022/07/28 04:02:23;;;;;;;3.83;3.42;;;;;;;19.69;60.79;96263.28;5113556;28;20474;-73
2022/07/28 04:04:50;;;;;;;5.40;4.10;;;;;;;20.00;59.81;96265.28;5113972;28;20079;-72
2022/07/28 04:07:17;;;;;;;10.95;3.85;;;;;;;20.33;58.95;96254.72;5114179;28;20179;-71
2022/07/28 04:09:44;;;;;;;11.25;4.13;;;;;;;20.75;58.00;96264.56;5113923;28;20047;-73
2022/07/28 04:12:11;;;;;;;5.90;3.55;;;;;;;21.17;57.54;96271.72;5113777;28;20046;-73
2022/07/28 04:14:40;;;;;;;7.53;3.90;;;;;;;21.53;56.62;96271.34;5113690;28;20489;-70
2022/07/28 04:17:07;;;;;;;12.75;4.22;;;;;;;21.86;55.64;96273.84;5113839;28;20164;-70
2022/07/28 04:19:34;;;;;;;8.52;3.95;;;;;;;22.12;54.11;96264.53;5113832;28;20048;-73
2022/07/28 04:22:01;;;;;;;7.22;3.90;;;;;;;22.52;53.80;96286.69;5113712;28;20048;-70
2022/07/28 04:24:28;;;;;;;10.15;4.53;;;;;;;22.86;53.25;96278.31;5113556;28;20044;-70
2022/07/28 04:26:56;;;;;;;5.03;3.25;;;;;;;23.20;52.56;96280.50;5113778;28;20404;-74
2022/07/28 04:29:23;;;;;;;5.25;3.03;;;;;;;23.52;51.82;96282.94;5113631;28;20040;-72
2022/07/28 04:31:52;;;;;;;3.90;3.47;;;;;;;23.78;50.79;96284.97;5113592;28;20097;-71
2022/07/28 04:34:19;;;;;;;4.20;3.50;;;;;;;24.08;49.79;96291.81;5113487;28;20499;-71
2022/07/28 04:36:46;;;;;;;3.30;3.00;;;;;;;24.40;48.89;96286.16;5113467;28;20522;-72
2022/07/28 04:39:13;;;;;;;6.15;3.17;;;;;;;24.73;48.60;96295.34;5113484;28;20047;-72
2022/07/28 04:41:40;;;;;;;4.63;3.28;;;;;;;25.06;49.02;96296.63;5113455;28;20047;-70
2022/07/28 04:44:10;;;;;;;5.18;2.95;;;;;;;25.39;48.09;96296.84;5113406;28;20040;-71
2022/07/28 04:46:37;;;;;;;5.05;3.72;;;;;;;25.73;47.01;96295.22;5113473;28;20044;-72
2022/07/28 04:49:06;;;;;;;4.70;3.42;;;;;;;25.95;45.73;96299.16;5113495;28;20481;-72
2022/07/28 04:51:33;;;;;;;5.43;3.30;;;;;;;26.19;45.62;96307.47;5113288;28;20481;-71
2022/07/28 04:54:01;;;;;;;4.57;3.42;;;;;;;26.53;45.49;96303.88;5113280;28;20055;-71
2022/07/28 04:56:28;;;;;;;8.10;3.63;;;;;;;26.75;44.02;96299.72;5113165;28;20074;-72
2022/07/28 04:58:55;;;;;;;3.83;2.97;;;;;;;27.00;43.59;96307.78;5113282;28;20048;-72
2022/07/28 05:01:22;;;;;;;5.47;3.20;;;;;;;27.27;43.39;96310.28;5113239;28;20495;-70
2022/07/28 05:03:49;;;;;;;5.75;3.40;;;;;;;27.57;42.34;96309.75;5113052;28;20044;-73
2022/07/28 05:06:18;;;;;;;3.58;3.28;;;;;;;27.85;42.34;96310.19;5113218;28;20101;-73
2022/07/28 05:08:45;;;;;;;6.05;3.45;;;;;;;28.07;40.73;96312.28;5113181;28;20498;-71
2022/07/28 05:11:13;;;;;;;3.83;3.28;;;;;;;28.37;41.83;96313.34;5113299;28;20052;-71
2022/07/28 05:13:40;;;;;;;6.30;3.90;;;;;;;28.64;42.09;96307.63;5116862;28;20048;-70
2022/07/28 05:16:07;;;;;;;5.18;2.92;;;;;;;28.90;41.66;96317.19;5117289;28;20083;-70
2022/07/28 05:18:34;;;;;;;4.40;3.30;;;;;;;29.14;41.31;96318.03;5117263;28;20556;-72
2022/07/28 05:21:02;;;;;;;4.78;3.45;;;;;;;29.42;40.46;96319.28;5117266;28;20101;-72
2022/07/28 05:23:30;;;;;;;5.95;4.05;;;;;;;29.68;40.53;96323.44;5117220;28;20089;-71
2022/07/28 05:25:57;;;;;;;7.65;4.32;;;;;;;29.88;38.11;96323.72;5117002;28;20489;-72
2022/07/28 05:28:25;;;;;;;8.30;4.63;;;;;;;30.08;37.86;96320.44;5116892;28;20096;-70
2022/07/28 05:30:52;;;;;;;5.07;4.55;;;;;;;30.27;37.97;96322.59;5116879;28;20043;-70
2022/07/28 05:33:20;;;;;;;7.47;5.18;;;;;;;30.49;37.49;96332.59;5116810;28;20054;-71
2022/07/28 05:35:52;;;;;;;5.05;4.53;;;;;;;30.68;38.27;96328.44;5116733;28;20516;-71
2022/07/28 05:38:20;;;;;;;8.55;5.60;;;;;;;30.70;37.41;96331.75;5116734;28;20097;-72
2022/07/28 05:40:49;;;;;;;7.07;5.20;;;;;;;30.74;37.32;96341.16;5116732;28;20051;-72
2022/07/28 05:43:18;;;;;;;14.00;5.32;;;;;;;31.05;36.83;96343.75;5116634;28;20040;-70
2022/07/28 05:45:45;;;;;;;5.47;4.95;;;;;;;31.39;36.37;96342.19;5116695;28;20048;-72
2022/07/28 05:48:13;;;;;;;5.70;5.22;;;;;;;31.68;37.05;96344.88;5116472;28;20051;-72
2022/07/28 05:50:40;;;;;;;6.80;6.10;;;;;;;31.98;35.43;96336.56;5116767;28;20048;-72
2022/07/28 05:53:07;;;;;;;7.88;5.20;;;;;;;32.27;34.33;96340.88;5116072;28;20046;-71
2022/07/28 05:55:35;;;;;;;10.48;5.15;;;;;;;32.45;34.05;96338.66;5116480;28;20051;-71
2022/07/28 05:58:04;;;;;;;7.85;4.75;;;;;;;32.63;33.89;96341.66;5116329;28;20040;-70
2022/07/28 06:00:32;;;;;;;5.47;4.90;;;;;;;32.86;33.33;96353.16;5116337;28;20043;-71
2022/07/28 06:03:01;;;;;;;10.30;4.70;;;;;;;32.94;32.80;96347.56;5116288;28;20094;-70
2022/07/28 06:05:29;;;;;;;14.50;4.30;;;;;;;33.12;31.56;96348.84;5116275;28;20130;-71
2022/07/28 06:07:58;;;;;;;11.75;4.30;;;;;;;33.36;32.02;96349.28;5116067;28;20055;-71
2022/07/28 06:10:57;;;;;;;8.45;3.72;;;;;;;33.53;31.39;96355.13;5116119;28;20416;-71
2022/07/28 06:13:16;;;;;;;4.93;3.72;;;;;;;33.75;31.68;96365.75;5116366;28;20050;-71
2022/07/28 06:15:47;;;;;;;4.55;3.78;;;;;;;33.96;30.69;96358.41;5116034;28;20043;-70
2022/07/28 06:18:14;;;;;;;;;;;;;;;34.11;30.69;96359.00;5116505;28;20050;-70
2022/07/28 06:20:41;;;;;;;6.38;4.03;;;;;;;34.31;30.43;96363.53;5115968;28;19975;-69
2022/07/28 06:23:09;;;;;;;12.85;4.35;;;;;;;34.46;30.25;96362.44;5115946;28;20047;-70
2022/07/28 06:25:36;;;;;;;8.70;4.15;;;;;;;34.74;31.29;96364.00;5115958;28;20040;-69
2022/07/28 06:28:04;;;;;;;7.85;4.50;;;;;;;34.85;30.39;96366.00;5115675;28;20116;-69
2022/07/28 06:30:32;;;;;;;5.05;3.90;;;;;;;35.07;29.98;96362.13;5115655;28;20408;-70
2022/07/28 06:33:00;;;;;;;7.47;4.00;;;;;;;35.23;29.53;96358.91;5115632;28;20489;-70
2022/07/28 06:35:27;;;;;;;7.40;3.90;;;;;;;35.25;29.34;96361.41;5115682;28;20043;-69
2022/07/28 06:37:55;;;;;;;8.10;3.72;;;;;;;35.26;29.35;96355.75;5115712;28;20049;-69
2022/07/28 06:40:23;;;;;;;5.80;3.50;;;;;;;35.47;29.41;96366.44;5115689;28;20057;-70
2022/07/28 06:42:50;;;;;;;6.65;4.07;;;;;;;35.56;28.96;96359.66;5115540;28;20048;-69
2022/07/28 06:45:19;;;;;;;6.22;3.28;;;;;;;35.32;28.58;96358.63;5115640;28;20048;-70
2022/07/28 06:47:47;;;;;;;6.07;3.50;;;;;;;34.54;28.42;96364.91;5115344;28;20048;-69
2022/07/28 06:50:15;;;;;;;7.68;3.20;;;;;;;33.98;30.53;96348.19;5115722;28;20039;-69
2022/07/28 06:52:42;;;;;;;6.18;2.78;;;;;;;33.43;29.81;96360.13;5115379;28;20135;-70
2022/07/28 06:55:10;;;;;;;8.60;3.42;;;;;;;33.04;31.27;96341.75;5115275;28;20489;-68
2022/07/28 06:57:38;;;;;;;6.53;3.25;;;;;;;32.93;31.32;96356.72;5115253;28;20055;-69
2022/07/28 07:00:07;;;;;;;3.13;2.88;;;;;;;32.83;31.03;96343.56;5115379;28;20489;-69
2022/07/28 07:02:38;;;;;;;7.63;2.60;;;;;;;32.48;31.44;96351.78;5115108;28;20079;-69
2022/07/28 07:05:09;;;;;;;4.68;2.92;;;;;;;32.33;31.27;96347.38;5115055;28;20051;-69
2022/07/28 07:07:36;;;;;;;5.00;2.80;;;;;;;32.61;31.85;96356.44;5114988;28;20044;-69
2022/07/28 07:10:04;;;;;;;4.18;2.90;;;;;;;32.55;30.19;96355.38;5115171;28;20412;-69
2022/07/28 07:12:34;;;;;;;5.32;3.22;;;;;;;32.61;30.52;96361.84;5114880;28;20485;-69
2022/07/28 07:15:01;;;;;;;3.37;2.50;;;;;;;32.68;30.50;96362.69;5114511;28;20055;-69
2022/07/28 07:17:28;;;;;;;3.90;2.97;;;;;;;32.65;30.28;96361.22;5114892;28;20082;-70
2022/07/28 07:19:56;;;;;;;3.70;3.33;;;;;;;33.00;29.58;96359.44;5114719;28;20048;-69
2022/07/28 07:22:25;;;;;;;5.45;3.00;;;;;;;33.33;30.04;96360.53;5114811;28;20047;-69
2022/07/28 07:24:52;;;;;;;6.90;3.30;;;;;;;33.45;29.63;96358.03;5114743;28;20108;-69
2022/07/28 07:27:19;;;;;;;4.15;3.03;;;;;;;33.24;29.30;96352.63;5114625;28;20051;-69
2022/07/28 07:29:46;;;;;;;5.55;2.95;;;;;;;33.36;29.60;96355.53;5114743;28;20378;-69
2022/07/28 07:32:14;;;;;;;3.72;3.35;;;;;;;33.85;27.97;96351.75;5114599;28;20055;-69
2022/07/28 07:34:41;;;;;;;4.32;3.03;;;;;;;33.72;28.35;96352.59;5113962;28;20126;-70
2022/07/28 07:37:12;;;;;;;8.40;3.40;;;;;;;33.53;28.90;96355.13;5114531;28;20054;-69
2022/07/28 07:39:42;;;;;;;5.78;3.30;;;;;;;33.76;29.20;96354.69;5114438;28;20404;-69
2022/07/28 07:42:09;;;;;;;4.65;2.85;;;;;;;33.41;29.14;96352.22;5114229;28;20051;-69
2022/07/28 07:44:37;;;;;;;6.07;3.40;;;;;;;33.25;29.43;96354.28;5114364;28;20044;-69
2022/07/28 07:47:04;;;;;;;6.13;3.50;;;;;;;33.28;29.71;96353.00;5114176;28;20047;-70
2022/07/28 07:49:31;;;;;;;3.33;3.03;;;;;;;33.39;29.22;96348.84;5114012;28;20054;-69
2022/07/28 07:51:59;;;;;;;8.32;3.58;;;;;;;33.55;28.80;96350.31;5114298;28;20398;-69
2022/07/28 07:54:26;;;;;;;5.90;3.28;;;;;;;33.49;29.21;96356.56;5114222;28;20046;-69
2022/07/28 07:56:55;;;;;;;5.72;3.70;;;;;;;33.18;29.21;96355.31;5114157;28;20093;-70
2022/07/28 07:59:23;;;;;;;4.35;3.40;;;;;;;33.13;29.78;96359.47;5113894;28;20501;-70
2022/07/28 08:01:53;;;;;;;7.82;4.03;;;;;;;32.99;29.94;96366.72;5113681;28;21261;-69
2022/07/28 08:04:21;;;;;;;5.50;3.55;;;;;;;33.01;30.61;96361.94;5114057;28;20051;-70
2022/07/28 08:06:48;;;;;;;7.13;3.40;;;;;;;33.34;29.15;96362.19;5113996;28;20043;-70
2022/07/28 08:09:16;;;;;;;3.53;2.92;;;;;;;33.18;30.15;96361.56;5113656;28;20105;-70
2022/07/28 08:11:45;;;;;;;5.97;3.38;;;;;;;33.14;29.90;96357.63;5113849;28;20043;-69
2022/07/28 08:14:14;;;;;;;6.28;3.95;;;;;;;33.28;29.04;96355.72;5113716;28;20050;-70
2022/07/28 08:16:41;;;;;;;7.47;3.53;;;;;;;33.20;29.31;96348.63;5113774;28;20138;-69
2022/07/28 08:19:08;;;;;;;11.07;3.60;;;;;;;33.24;31.29;96349.91;5113844;28;20401;-70
2022/07/28 08:21:36;;;;;;;5.90;3.67;;;;;;;33.38;30.41;96345.31;5113675;28;20048;-70
2022/07/28 08:24:03;;;;;;;6.60;4.03;;;;;;;33.76;29.30;96349.25;5113589;28;20481;-70
2022/07/28 08:26:30;;;;;;;9.00;3.67;;;;;;;34.10;29.34;96346.47;5113610;28;20481;-69
2022/07/28 08:28:58;;;;;;;5.97;3.75;;;;;;;34.09;28.35;96347.50;5113617;28;20124;-69
2022/07/28 08:31:26;;;;;;;8.85;4.60;;;;;;;33.88;28.42;96354.03;5113555;28;20048;-69
2022/07/28 08:33:54;;;;;;;6.32;3.80;;;;;;;33.69;29.36;96356.59;5113497;28;20078;-69
2022/07/28 08:36:22;;;;;;;7.30;3.60;;;;;;;33.59;29.69;96345.34;5113497;28;20086;-70
2022/07/28 08:38:50;;;;;;;5.05;3.13;;;;;;;33.27;29.58;96351.34;5113483;28;20059;-70
2022/07/28 08:41:22;;;;;;;7.15;3.78;;;;;;;33.49;29.34;96351.13;5113707;28;20048;-70
2022/07/28 08:43:53;;;;;;;8.68;3.70;;;;;;;33.80;29.95;96346.13;5113460;28;20048;-69
2022/07/28 08:46:20;;;;;;;;;;;;;;;33.74;28.77;96348.63;5113803;28;20051;-69
2022/07/28 08:48:51;;;;;;;5.35;3.67;;;;;;;33.55;29.69;96352.19;5117441;28;19927;-68
2022/07/28 08:51:19;;;;;;;4.13;3.40;;;;;;;33.25;29.73;96351.56;5117645;28;20052;-68
2022/07/28 08:53:48;;;;;;;10.23;3.80;;;;;;;33.09;30.29;96347.41;5117666;28;20040;-68
2022/07/28 08:56:16;;;;;;;6.40;3.45;;;;;;;33.31;29.85;96340.94;5117542;28;20045;-68
2022/07/28 08:58:44;;;;;;;5.70;3.40;;;;;;;33.72;30.15;96347.19;5117576;28;20044;-69
2022/07/28 09:01:12;;;;;;;5.03;3.55;;;;;;;33.68;28.38;96345.94;5117481;28;20052;-68
2022/07/28 09:03:39;;;;;;;4.43;3.20;;;;;;;33.76;30.56;96351.13;5117231;28;20505;-68
2022/07/28 09:06:08;;;;;;;6.30;3.53;;;;;;;33.78;29.01;96351.78;5117246;28;20405;-67
2022/07/28 09:08:36;;;;;;;4.00;3.10;;;;;;;34.09;28.66;96350.22;5117220;28;20089;-68
2022/07/28 09:11:05;;;;;;;5.75;3.90;;;;;;;33.73;28.40;96354.25;5117383;28;20048;-68
2022/07/28 09:13:32;;;;;;;4.18;3.60;;;;;;;33.73;29.34;96357.81;5117338;28;20472;-68
2022/07/28 09:15:59;;;;;;;5.40;3.85;;;;;;;34.03;28.75;96354.63;5117163;28;20473;-68
2022/07/28 09:18:27;;;;;;;8.10;4.07;;;;;;;34.03;28.58;96351.91;5117064;28;20047;-68
2022/07/28 09:20:55;;;;;;;6.50;3.50;;;;;;;33.97;28.50;96346.50;5117318;28;20085;-68
2022/07/28 09:23:24;;;;;;;8.23;4.03;;;;;;;33.87;28.01;96355.09;5117164;28;20156;-67
2022/07/28 09:26:05;;;;;;;10.57;3.60;;;;;;;33.71;28.88;96356.38;5116995;28;20082;-68
2022/07/28 09:28:35;;;;;;;4.40;4.00;;;;;;;33.73;28.54;96357.81;5117107;28;20120;-67
2022/07/28 09:31:06;;;;;;;5.40;4.00;;;;;;;33.82;29.07;96358.44;5116965;28;20046;-67
2022/07/28 09:33:34;;;;;;;7.18;3.90;;;;;;;33.93;28.29;96356.09;5116902;28;20050;-67
2022/07/28 09:36:01;;;;;;;5.43;4.00;;;;;;;33.86;28.36;96353.44;5116932;28;20127;-67
2022/07/28 09:38:41;;;;;;;6.00;4.25;;;;;;;33.81;28.66;96361.34;5116808;28;20056;-69
2022/07/28 09:41:08;;;;;;;12.20;4.30;;;;;;;33.89;28.23;96358.44;5116754;28;20405;-69
2022/07/28 09:43:38;;;;;;;16.00;4.88;;;;;;;33.65;28.63;96355.34;5116620;28;20047;-67
2022/07/28 09:46:10;;;;;;;8.90;4.05;;;;;;;33.31;29.07;96351.78;5116789;28;20469;-67
2022/07/28 09:48:51;;;;;;;6.85;4.55;;;;;;;33.37;29.92;96350.94;5116497;28;20052;-67
2022/07/28 09:51:20;;;;;;;8.13;4.00;;;;;;;33.80;28.70;96346.97;5116413;28;20044;-67
2022/07/28 09:53:50;;;;;;;6.47;4.03;;;;;;;33.44;29.35;96361.78;5116444;28;20048;-67
2022/07/28 09:56:18;;;;;;;8.10;3.95;;;;;;;33.13;29.79;96354.06;5116522;28;20044;-68
2022/07/28 09:58:56;;;;;;;6.72;3.90;;;;;;;33.21;29.60;96352.19;5116005;28;20051;-67
2022/07/28 10:01:26;;;;;;;6.18;4.00;;;;;;;33.70;30.03;96350.09;5116200;28;20047;-67
2022/07/28 10:03:56;;;;;;;6.73;4.23;;;;;;;34.01;28.83;96345.06;5116169;28;20044;-67
2022/07/28 10:06:30;;;;;;;9.38;3.50;;;;;;;34.09;29.71;96354.81;5116570;28;20120;-68
2022/07/28 10:09:01;;;;;;;4.25;3.70;;;;;;;34.02;28.96;96346.72;5116009;28;20408;-67
2022/07/28 10:11:30;;;;;;;7.60;4.00;;;;;;;34.12;28.87;96346.25;5116117;28;20071;-66
2022/07/28 10:13:59;;;;;;;4.32;3.92;;;;;;;34.50;28.25;96340.09;5115956;28;20051;-69
2022/07/28 10:16:28;;;;;;;7.95;3.85;;;;;;;34.74;26.98;96339.56;5116031;28;20054;-67
2022/07/28 10:18:58;;;;;;;5.75;3.72;;;;;;;34.53;27.27;96338.81;5115915;28;20489;-67
2022/07/28 10:21:27;;;;;;;4.65;4.05;;;;;;;34.20;27.39;96337.91;5115987;28;20130;-68
2022/07/28 10:23:56;;;;;;;6.85;3.60;;;;;;;34.27;28.65;96338.72;5115976;28;20048;-68
2022/07/28 10:26:31;;;;;;;8.43;4.13;;;;;;;34.43;27.51;96333.03;5115960;28;20489;-68
2022/07/28 10:29:03;;;;;;;12.80;4.05;;;;;;;34.54;27.90;96338.59;5115757;28;20096;-68
2022/07/28 10:31:35;;;;;;;9.38;3.55;;;;;;;34.68;27.51;96330.41;5115727;28;20055;-67
2022/07/28 10:34:05;;;;;;;6.65;3.92;;;;;;;34.78;27.20;96332.63;5115689;28;20758;-67
2022/07/28 10:36:35;;;;;;;6.07;3.40;;;;;;;34.76;27.01;96334.75;5115641;28;20047;-66
2022/07/28 10:39:09;;;;;;;5.15;3.92;;;;;;;34.82;28.30;96331.16;5115825;28;20075;-67
2022/07/28 10:41:41;;;;;;;6.00;4.30;;;;;;;34.54;27.98;96326.91;5115559;28;20367;-68
2022/07/28 10:44:12;;;;;;;6.25;3.95;;;;;;;34.74;27.82;96331.41;5115592;28;20067;-67
2022/07/28 10:46:42;;;;;;;8.68;4.13;;;;;;;34.69;27.38;96334.78;5115803;28;20050;-65
2022/07/28 10:49:10;;;;;;;5.47;3.40;;;;;;;34.38;27.67;96326.38;5115587;28;20047;-68
2022/07/28 10:51:40;;;;;;;6.68;4.20;;;;;;;34.29;27.95;96331.19;5115420;28;20280;-67
2022/07/28 10:54:26;;;;;;;10.20;4.07;;;;;;;34.47;28.32;96326.94;5115110;28;20078;-68
2022/07/28 10:56:57;;;;;;;8.02;4.70;;;;;;;34.10;27.78;96334.78;5115248;28;20039;-67
2022/07/28 10:59:47;;;;;;;9.98;4.15;;;;;;;33.52;28.37;96320.91;5115276;28;20043;-67
2022/07/28 11:02:50;;;;;;;7.03;4.15;;;;;;;33.53;29.19;96318.00;5115122;28;20083;-67
2022/07/28 11:05:27;;;;;;;11.52;4.57;;;;;;;33.51;28.84;96321.97;5115116;28;20040;-67
2022/07/28 11:07:59;;;;;;;5.78;4.30;;;;;;;33.46;28.85;96306.31;5114969;28;20051;-68
2022/07/28 11:10:29;;;;;;;9.90;4.68;;;;;;;33.58;29.02;96305.66;5114449;28;20054;-67
2022/07/28 11:12:59;;;;;;;5.07;4.43;;;;;;;33.72;29.31;96306.53;5114976;28;20096;-68
2022/07/28 11:15:34;;;;;;;7.97;4.30;;;;;;;33.70;29.39;96301.31;5114985;28;20048;-68
2022/07/28 11:18:05;;;;;;;5.32;4.43;;;;;;;33.85;28.51;96305.66;5114992;28;20051;-67
2022/07/28 11:21:11;;;;;;;12.02;4.65;;;;;;;34.08;29.07;96304.31;5114312;28;20051;-68
2022/07/28 11:23:47;;;;;;;5.97;4.78;;;;;;;34.17;28.30;96303.06;5114793;28;20546;-67
2022/07/28 11:26:34;;;;;;;6.63;5.03;;;;;;;34.12;27.64;96305.56;5114738;28;20450;-67
2022/07/28 11:29:21;;;;;;;5.13;4.63;;;;;;;34.11;28.07;96293.91;5114680;28;20079;-67
2022/07/28 11:32:08;;;;;;;7.20;4.47;;;;;;;34.02;28.40;96290.59;5114668;28;20094;-67
2022/07/28 11:35:10;;;;;;;6.78;4.60;;;;;;;33.58;28.83;96295.69;5114573;28;20105;-67
2022/07/28 11:38:19;;;;;;;8.02;4.70;;;;;;;33.70;28.72;96295.88;5070939;28;20493;-67
2022/07/28 11:40:49;;;;;;;8.25;4.82;;;;;;;33.65;29.52;96287.56;5114697;28;20079;-68
2022/07/28 11:43:34;;;;;;;7.47;4.97;;;;;;;33.95;30.38;96295.19;5114314;28;20054;-67
2022/07/28 11:46:39;;;;;;;7.65;4.78;;;;;;;34.36;29.15;96284.19;5114371;28;20284;-68
2022/07/28 11:49:30;;;;;;;6.18;5.25;;;;;;;34.22;27.75;96295.09;5114212;28;20052;-67